Bismarck Municipal Airport
KBIS : rendu visible

Aérodrome :











RETROUVEZ-NOUS SUR...

 
LOGIN :

S'inscrire | Disclaimer

   EN    FR    IT 

 









Légende :    VFR   VFR Marginal   IFR   IFR Intensif   IFR Très Intensif
Visi : 
Plafond : 
>= 8 km
>= 3000ft
5 à 8 km
1000 à 3000 ft
1500m à 5 km
500 à 1000 ft
800 à 1500m
200 à 500 ft
< 800m
< 200 ft
Symboles :   Orages  Brouillard  Fortes neiges  Fortes précipitations  Vent > 20 kt







- Altitude de l'aérodrome : 1661 ft
- Code IATA : BIS


KBIS - Bismarck Municipal

DERNIER METAR :
  • 210223Z AUTO 09004KT 10SM VCTS BKN040 OVC050 18/17 A2967 RMK AO2 LTG DSNT N AND NE RAE11 TSE17 P0008 T01780172

METARs EXPIRÉS :
  • 210200Z AUTO 01012KT 3SM +TSRA BR SCT017 BKN042 OVC049 18/17 A2966 RMK AO2 LTG DSNT N-E P0007 T01780172
  • 210152Z AUTO 35013G24KT 1SM +TSRA BR FEW008 BKN017 OVC046 18/17 A2966 RMK AO2 LTG DSNT ALQDS TSB0054 SLP039 P0069 T01780167
  • 210139Z AUTO VRB06G15KT 1 3/4SM +TSRA BR FEW010 BKN027 OVC047 18/17 A2969 RMK AO2 LTG DSNT ALQDS TSB0054 P0023 T01780167
  • 210126Z AUTO 31017G24KT 5SM TSRA BR FEW010 BKN044 OVC080 18/17 A2970 RMK AO2 LTG DSNT ALQDS TSB0054 PRESRR P0016 T01780167
  • 210100Z AUTO 14011KT 10SM -TSRA SCT034 BKN042 OVC100 18/17 A2968 RMK AO2 LTG DSNT ALQDS TSB0054 P0000 T01780167
  • 210052Z AUTO 11004KT 10SM VCTS -RA BKN032 BKN042 OVC110 18/17 A2967 RMK AO2 PK WND 14029/0018 LTG DSNT ALQDS RAB17 TSB11 SLP042 P0018 T01780167
  • 210041Z AUTO 05005KT 10SM VCTS -RA FEW027 BKN035 OVC095 18/16 A2968 RMK AO2 PK WND 14029/0018 LTG DSNT ALQDS RAB17 TSB11 P0018 T01780161
  • 210032Z AUTO 08007G20KT 2 1/2SM VCTS +RA BR SCT028 BKN050 BKN090 18/16 A2967 RMK AO2 PK WND 14029/0018 LTG DSNT ALQDS RAB17 TSB11 P0017 T01780161
  • 210017Z AUTO 13015G29KT 9SM -TSRA FEW060 SCT080 BKN090 18/16 A2970 RMK AO2 PK WND 14029/0017 LTG DSNT ALQDS RAB17 TSB11 PRESRR P0000 T01780156
  • 202352Z AUTO 04009KT 10SM VCTS FEW046 BKN080 OVC110 18/16 A2967 RMK AO2 LTG DSNT ALQDS RAE07 SLP044 P0000 60045 T01780161 10300 20178 58002

TAF KBIS
Valide du 21 à 02h jusqu'au 22 à 00h UTC


210144Z 2102/2124 18007KT P6SM -SHRA VCTS SCT028CB BKN100
TEMPO 2102/2103 VRB15G30KT 1SM TSRAGR OVC025CB
FM210300 31005KT P6SM VCTS SCT018CB OVC050
FM210700 31005KT 6SM SHRA BR BKN025
FM211200 30006KT P6SM VCSH OVC015
FM211700 31010G27KT 6SM -SHRA VCTS BKN021CB
Pas de NOTAMs connus pour ce terrain.



MET'MAP, la Météo Aéronautique d'un coup d'oeil ! - Copyright ORBIFLY Décembre 2007 - Disclaimer

ORBIFLY MET'MAP TEAM :

Programmation & Développement : Alexandra Zaïnal
Conception & Développement : Baudouin d'Aumeries
Co-Programmation & Développement : Marc-Olivier Méhu
Soutien technique & logistique : Manuel Goepfert

Contact : metmap@orbifly.com




SOURCES & CREDITS :

   NOAA       Earth
Advisory